TimeCST,TemperatureF,Dew PointF,Humidity,Sea Level PressureIn,VisibilityMPH,Wind Direction,Wind SpeedMPH,Gust SpeedMPH,PrecipitationIn,Events,Conditions,WindDirDegrees,DateUTC
12:53 AM,12.0,8.1,84,30.06,10.0,NW,9.2,-,N/A,,Partly Cloudy,310,2013-02-22 06:53:00
1:53 AM,9.0,5.0,84,30.08,10.0,NW,9.2,-,N/A,,Clear,310,2013-02-22 07:53:00
2:53 AM,8.1,3.9,83,30.07,10.0,NW,10.4,-,N/A,,Clear,310,2013-02-22 08:53:00
3:53 AM,6.1,3.0,87,30.08,10.0,WNW,11.5,-,N/A,,Clear,300,2013-02-22 09:53:00
4:53 AM,6.1,1.9,83,30.08,10.0,WNW,10.4,-,N/A,,Clear,290,2013-02-22 10:53:00
5:53 AM,5.0,1.9,87,30.10,10.0,WNW,8.1,-,N/A,,Clear,290,2013-02-22 11:53:00
6:53 AM,1.0,-2.9,83,30.12,7.0,West,10.4,-,N/A,,Clear,260,2013-02-22 12:53:00
7:53 AM,1.9,-0.9,88,30.12,7.0,WNW,12.7,-,N/A,,Clear,290,2013-02-22 13:53:00
8:53 AM,6.1,1.9,83,30.14,9.0,West,9.2,-,N/A,,Clear,270,2013-02-22 14:53:00
9:53 AM,8.1,3.0,80,30.16,10.0,West,11.5,-,N/A,,Clear,270,2013-02-22 15:53:00
10:53 AM,12.0,6.1,77,30.14,10.0,WNW,8.1,-,N/A,,Unknown,300,2013-02-22 16:53:00
11:53 AM,17.1,10.9,77,30.15,10.0,West,5.8,-,N/A,,Mostly Cloudy,260,2013-02-22 17:53:00
12:53 PM,21.9,14.0,72,30.12,10.0,NW,11.5,-,N/A,,Overcast,310,2013-02-22 18:53:00
1:53 PM,23.0,15.1,72,30.12,10.0,WNW,6.9,-,N/A,,Overcast,300,2013-02-22 19:53:00
2:53 PM,24.1,16.0,71,30.11,10.0,West,5.8,-,N/A,,Clear,280,2013-02-22 20:53:00
3:53 PM,25.0,16.0,69,30.11,10.0,West,8.1,-,N/A,,Clear,280,2013-02-22 21:53:00
4:53 PM,25.0,16.0,69,30.10,10.0,WNW,6.9,-,N/A,,Clear,300,2013-02-22 22:53:00
5:53 PM,24.1,16.0,71,30.09,10.0,NW,4.6,-,N/A,,Unknown,310,2013-02-22 23:53:00
6:53 PM,21.0,15.1,78,30.12,10.0,South,4.6,-,N/A,,Clear,190,2013-02-23 00:53:00
7:53 PM,18.0,12.9,81,30.12,9.0,WSW,4.6,-,N/A,,Clear,240,2013-02-23 01:53:00
8:53 PM,15.1,12.0,88,30.12,7.0,SW,6.9,-,N/A,,Clear,230,2013-02-23 02:53:00
9:53 PM,14.0,12.0,92,30.11,6.0,SW,5.8,-,N/A,,Clear,230,2013-02-23 03:53:00
10:53 PM,12.9,10.0,88,30.11,5.0,WSW,11.5,-,N/A,,Clear,250,2013-02-23 04:53:00
11:53 PM,10.0,8.1,92,30.09,4.0,West,3.5,-,N/A,,Clear,270,2013-02-23 05:53:00